createdAt,value
2022-10-07T00:01:35.056Z,252.97
2022-10-07T00:04:22.956Z,253.33
2022-10-07T00:07:10.903Z,266.97
2022-10-07T00:09:58.762Z,263.87
2022-10-07T00:12:46.648Z,270.00
2022-10-07T00:15:34.553Z,275.73
2022-10-07T00:18:23.734Z,268.00
2022-10-07T00:21:13.256Z,241.50
2022-10-07T00:24:01.768Z,262.87
2022-10-07T00:26:49.615Z,263.73
2022-10-07T00:29:37.475Z,270.57
2022-10-07T00:32:25.333Z,276.73
2022-10-07T00:35:16.436Z,265.00
2022-10-07T00:38:04.352Z,273.70
2022-10-07T00:40:52.260Z,264.47
2022-10-07T00:43:40.212Z,274.13
2022-10-07T00:46:32.345Z,275.47
2022-10-07T00:49:20.372Z,255.53
2022-10-07T00:52:10.910Z,254.57
2022-10-07T00:55:02.227Z,252.40
2022-10-07T00:57:52.426Z,271.33
2022-10-07T01:00:41.232Z,274.20
2022-10-07T01:03:29.690Z,250.00
2022-10-07T01:06:17.986Z,264.97
2022-10-07T01:09:08.700Z,282.23
2022-10-07T01:12:01.371Z,283.87
2022-10-07T01:15:01.055Z,271.80
2022-10-07T01:17:54.678Z,265.47
2022-10-07T01:20:47.666Z,269.47
2022-10-07T01:24:00.939Z,256.90
2022-10-07T01:26:57.312Z,263.67
2022-10-07T01:29:55.824Z,265.37
2022-10-07T01:32:48.244Z,259.77
2022-10-07T01:35:38.282Z,264.60
2022-10-07T01:38:33.674Z,265.30
2022-10-07T01:41:23.168Z,268.13
2022-10-07T01:44:13.768Z,262.63
2022-10-07T01:47:01.796Z,241.40
2022-10-07T01:49:49.780Z,239.23
2022-10-07T01:52:52.699Z,236.73
2022-10-07T01:55:52.751Z,232.03
2022-10-07T01:58:56.780Z,236.13
2022-10-07T02:01:53.993Z,233.03
2022-10-07T02:04:59.088Z,218.47
2022-10-07T02:08:02.362Z,214.80
2022-10-07T02:11:02.041Z,216.03
2022-10-07T02:14:01.311Z,218.47
2022-10-07T02:17:02.747Z,226.03
2022-10-07T02:19:56.401Z,225.33
2022-10-07T02:22:47.195Z,218.17
2022-10-07T02:25:39.653Z,231.57
2022-10-07T02:28:29.097Z,227.43
2022-10-07T02:31:21.381Z,209.47
2022-10-07T02:34:18.914Z,195.70
2022-10-07T02:37:15.503Z,205.33
2022-10-07T02:40:09.626Z,216.87
2022-10-07T02:43:05.245Z,195.67
2022-10-07T02:46:02.065Z,192.70
2022-10-07T02:48:58.755Z,205.73
2022-10-07T02:51:52.703Z,207.70
2022-10-07T02:54:45.008Z,216.47
2022-10-07T02:57:37.192Z,207.87
2022-10-07T03:00:25.531Z,193.70
2022-10-07T03:03:14.706Z,203.47
2022-10-07T03:06:19.892Z,197.27
2022-10-07T03:09:09.994Z,209.47
2022-10-07T03:11:58.268Z,212.70
2022-10-07T03:14:49.708Z,192.40
2022-10-07T03:17:39.603Z,198.17
2022-10-07T03:20:30.083Z,203.00
2022-10-07T03:23:18.036Z,206.20
2022-10-07T03:26:07.410Z,204.47
2022-10-07T03:28:55.340Z,206.20
2022-10-07T03:31:44.063Z,194.83
2022-10-07T03:34:32.510Z,208.50
2022-10-07T03:37:21.144Z,205.70
2022-10-07T03:40:10.049Z,209.80
2022-10-07T03:43:00.105Z,207.97
2022-10-07T03:45:51.317Z,192.10
2022-10-07T03:48:39.663Z,201.43
2022-10-07T03:51:28.353Z,208.67
2022-10-07T03:54:16.507Z,225.13
2022-10-07T03:57:24.767Z,196.23
2022-10-07T04:00:14.820Z,197.00
2022-10-07T04:03:02.860Z,199.30
2022-10-07T04:05:59.653Z,213.53
2022-10-07T04:08:52.741Z,204.60
2022-10-07T04:11:41.685Z,207.40
2022-10-07T04:14:30.385Z,200.13
2022-10-07T04:17:19.857Z,210.77
2022-10-07T04:20:09.234Z,210.67
2022-10-07T04:22:57.289Z,206.47
2022-10-07T04:25:46.644Z,196.70
2022-10-07T04:28:39.259Z,208.03
2022-10-07T04:31:33.444Z,192.33
2022-10-07T04:34:26.703Z,208.03
2022-10-07T04:37:15.305Z,194.10
2022-10-07T04:40:03.318Z,193.17
2022-10-07T04:43:11.806Z,206.57
2022-10-07T04:46:05.435Z,205.80
2022-10-07T04:48:55.474Z,201.03
2022-10-07T04:51:48.294Z,215.37
2022-10-07T04:54:39.328Z,200.77
2022-10-07T04:57:27.407Z,197.93
2022-10-07T05:00:15.665Z,192.50
2022-10-07T05:03:04.397Z,213.00
2022-10-07T05:05:54.099Z,216.73
2022-10-07T05:08:45.247Z,220.30
2022-10-07T05:11:34.662Z,223.70
2022-10-07T05:14:29.441Z,192.43
2022-10-07T05:17:20.153Z,200.10
2022-10-07T05:20:09.079Z,204.40
2022-10-07T05:22:58.077Z,218.93
2022-10-07T05:25:48.284Z,222.47
2022-10-07T05:28:36.533Z,213.27
2022-10-07T05:31:25.796Z,211.80
2022-10-07T05:34:16.349Z,217.10
2022-10-07T05:37:04.320Z,221.80
2022-10-07T05:39:52.964Z,209.53
2022-10-07T05:42:43.369Z,233.73
2022-10-07T05:45:31.950Z,221.50
2022-10-07T05:48:21.647Z,209.40
2022-10-07T05:51:09.744Z,217.10
2022-10-07T05:53:58.201Z,220.50
2022-10-07T05:56:53.873Z,221.07
2022-10-07T05:59:44.116Z,205.87
2022-10-07T06:02:32.546Z,230.57
2022-10-07T06:05:00.929Z,224.93
2022-10-07T06:07:29.746Z,231.40
2022-10-07T06:10:16.989Z,252.80
2022-10-07T06:13:02.254Z,209.90
2022-10-07T06:15:32.423Z,214.17
2022-10-07T06:18:00.332Z,222.57
2022-10-07T06:20:28.983Z,239.50
2022-10-07T06:22:58.879Z,247.43
2022-10-07T06:25:27.864Z,240.30
2022-10-07T06:27:58.091Z,238.37
2022-10-07T06:30:27.571Z,240.40
2022-10-07T06:32:57.352Z,238.00
2022-10-07T06:35:25.403Z,227.63
2022-10-07T06:37:54.856Z,223.47
2022-10-07T06:40:22.485Z,231.80
2022-10-07T06:42:50.441Z,238.50
2022-10-07T06:45:44.279Z,215.03
2022-10-07T06:48:14.883Z,235.60
2022-10-07T06:50:50.789Z,215.93
2022-10-07T06:53:18.643Z,220.03
2022-10-07T06:55:47.470Z,237.93
2022-10-07T06:58:15.746Z,236.23
2022-10-07T07:00:44.322Z,228.17
2022-10-07T07:03:12.188Z,223.03
2022-10-07T07:05:44.617Z,240.93
2022-10-07T07:08:17.194Z,219.17
2022-10-07T07:10:46.251Z,240.10
2022-10-07T07:13:15.420Z,221.80
2022-10-07T07:15:43.528Z,243.67
2022-10-07T07:18:11.683Z,228.13
2022-10-07T07:20:41.449Z,228.27
2022-10-07T07:23:10.955Z,238.07
2022-10-07T07:25:44.146Z,238.77
2022-10-07T07:28:11.907Z,231.77
2022-10-07T07:30:40.867Z,243.27
2022-10-07T07:33:11.523Z,253.47
2022-10-07T07:35:43.449Z,238.77
2022-10-07T07:38:11.686Z,265.87
2022-10-07T07:40:40.634Z,253.70
2022-10-07T07:43:09.410Z,247.00
2022-10-07T07:45:37.147Z,261.67
2022-10-07T07:48:05.530Z,273.93
2022-10-07T07:50:35.509Z,247.67
2022-10-07T07:53:05.654Z,262.17
2022-10-07T07:55:33.618Z,269.57
2022-10-07T07:58:01.593Z,266.47
2022-10-07T08:00:30.294Z,268.73
2022-10-07T08:03:04.126Z,267.63
2022-10-07T08:05:35.670Z,259.23
2022-10-07T08:08:05.348Z,276.57
2022-10-07T08:10:33.463Z,281.23
2022-10-07T08:13:01.127Z,281.13
2022-10-07T08:15:28.888Z,273.43
2022-10-07T08:17:57.083Z,292.17
2022-10-07T08:20:24.763Z,260.83
2022-10-07T08:22:56.900Z,270.83
2022-10-07T08:25:29.389Z,285.83
2022-10-07T08:27:58.835Z,278.53
2022-10-07T08:30:27.218Z,282.23
2022-10-07T08:32:59.014Z,294.20
2022-10-07T08:35:28.756Z,300.15
2022-10-07T08:37:57.093Z,316.40
2022-10-07T08:40:24.728Z,309.80
2022-10-07T08:42:54.540Z,328.25
2022-10-07T08:45:29.344Z,319.55
2022-10-07T08:47:57.794Z,355.02
2022-10-07T08:50:30.907Z,343.38
2022-10-07T08:53:02.935Z,349.23
2022-10-07T08:55:37.255Z,353.88
2022-10-07T08:58:26.394Z,336.65
2022-10-07T09:01:00.213Z,348.48
2022-10-07T09:03:39.938Z,361.80
2022-10-07T09:06:14.100Z,348.45
2022-10-07T09:08:47.275Z,347.75
2022-10-07T09:11:25.412Z,348.10
2022-10-07T09:13:59.155Z,342.67
2022-10-07T09:16:31.279Z,361.25
2022-10-07T09:19:01.648Z,354.17
2022-10-07T09:21:37.355Z,351.08
2022-10-07T09:24:18.475Z,371.33
2022-10-07T09:26:46.353Z,363.58
2022-10-07T09:29:17.013Z,348.48
2022-10-07T09:31:44.717Z,349.33
2022-10-07T09:34:23.179Z,382.17
2022-10-07T09:37:19.016Z,372.27
2022-10-07T09:39:48.297Z,352.33
2022-10-07T09:42:29.482Z,364.95
2022-10-07T09:45:00.986Z,380.38
2022-10-07T09:47:32.783Z,372.65
2022-10-07T09:50:00.548Z,397.08
2022-10-07T09:52:29.424Z,382.10
2022-10-07T09:54:59.591Z,402.20
2022-10-07T09:57:30.941Z,405.80
2022-10-07T10:00:22.230Z,379.58
2022-10-07T10:02:52.999Z,370.85
2022-10-07T10:05:24.943Z,366.17
2022-10-07T10:07:59.475Z,373.00
2022-10-07T10:10:29.762Z,380.33
2022-10-07T10:12:59.561Z,389.30
2022-10-07T10:15:39.532Z,388.77
2022-10-07T10:18:28.456Z,407.92
2022-10-07T10:20:56.360Z,394.08
2022-10-07T10:23:28.898Z,427.20
2022-10-07T10:26:27.182Z,416.85
2022-10-07T10:29:05.569Z,392.02
2022-10-07T10:31:49.473Z,413.02
2022-10-07T10:34:32.190Z,417.70
2022-10-07T10:37:04.862Z,411.23
2022-10-07T10:39:47.498Z,423.25
2022-10-07T10:42:22.598Z,408.80
2022-10-07T10:45:03.661Z,391.60
2022-10-07T10:47:45.422Z,392.15
2022-10-07T10:50:23.649Z,410.02
2022-10-07T10:53:03.817Z,387.98
2022-10-07T10:55:54.461Z,390.33
2022-10-07T10:58:31.984Z,380.23
2022-10-07T11:01:11.832Z,381.63
2022-10-07T11:04:16.912Z,382.80
2022-10-07T11:06:51.172Z,376.38
2022-10-07T11:09:29.911Z,360.15
2022-10-07T11:12:01.686Z,387.70
2022-10-07T11:14:31.605Z,372.77
2022-10-07T11:17:04.897Z,383.40
2022-10-07T11:19:39.245Z,384.70
2022-10-07T11:22:14.586Z,388.63
2022-10-07T11:24:46.531Z,373.90
2022-10-07T11:27:19.760Z,396.52
2022-10-07T11:29:52.549Z,362.33
2022-10-07T11:32:25.444Z,371.00
2022-10-07T11:35:00.510Z,368.27
2022-10-07T11:37:32.394Z,344.90
2022-10-07T11:40:00.273Z,338.65
2022-10-07T11:42:29.873Z,315.90
2022-10-07T11:45:02.629Z,329.45
2022-10-07T11:47:35.402Z,317.80
2022-10-07T11:50:10.674Z,319.02
2022-10-07T11:52:42.668Z,310.63
2022-10-07T11:55:17.167Z,324.85
2022-10-07T11:57:54.143Z,312.75
2022-10-07T12:00:26.976Z,295.45
2022-10-07T12:02:56.133Z,291.52
2022-10-07T12:06:06.917Z,295.10
2022-10-07T12:08:38.397Z,303.17
2022-10-07T12:11:42.942Z,294.95
2022-10-07T12:14:42.524Z,289.48
2022-10-07T12:17:30.286Z,296.27
2022-10-07T12:20:37.143Z,285.83
2022-10-07T12:23:41.274Z,278.90
2022-10-07T12:26:51.479Z,299.92
2022-10-07T12:29:36.249Z,293.52
2022-10-07T12:32:04.742Z,288.92
2022-10-07T12:34:39.691Z,285.30
2022-10-07T12:37:45.009Z,293.23
2022-10-07T12:40:25.897Z,297.90
2022-10-07T12:43:00.217Z,285.02
2022-10-07T12:45:31.965Z,294.58
2022-10-07T12:48:01.730Z,310.52
2022-10-07T12:50:31.777Z,302.95
2022-10-07T12:53:03.564Z,302.52
2022-10-07T12:55:37.266Z,317.30
2022-10-07T12:58:34.188Z,307.42
2022-10-07T13:01:16.553Z,265.77
2022-10-07T13:04:06.945Z,310.45
2022-10-07T13:07:22.798Z,313.08
2022-10-07T13:10:19.056Z,283.60
2022-10-07T13:12:51.756Z,310.25
2022-10-07T13:15:28.905Z,301.08
2022-10-07T13:18:06.254Z,306.77
2022-10-07T13:20:47.484Z,325.73
2022-10-07T13:23:17.826Z,296.38
2022-10-07T13:25:49.555Z,297.65
2022-10-07T13:28:22.316Z,319.60
2022-10-07T13:30:51.587Z,319.83
2022-10-07T13:33:27.671Z,313.45
2022-10-07T13:36:13.805Z,314.02
2022-10-07T13:38:41.528Z,306.88
2022-10-07T13:41:14.805Z,329.65
2022-10-07T13:43:45.179Z,320.73
2022-10-07T13:46:14.415Z,328.92
2022-10-07T13:48:45.776Z,313.70
2022-10-07T13:51:20.553Z,326.98
2022-10-07T13:53:53.980Z,309.90
2022-10-07T13:56:25.114Z,326.77
2022-10-07T13:58:55.338Z,323.00
2022-10-07T14:01:27.197Z,309.05
2022-10-07T14:04:10.420Z,314.17
2022-10-07T14:06:45.773Z,314.45
2022-10-07T14:09:22.729Z,325.05
2022-10-07T14:11:55.044Z,329.33
2022-10-07T14:14:28.189Z,329.33
2022-10-07T14:16:59.259Z,341.90
2022-10-07T14:19:31.816Z,324.17
2022-10-07T14:22:02.937Z,323.92
2022-10-07T14:24:31.716Z,302.27
2022-10-07T14:27:00.444Z,325.60
2022-10-07T14:29:38.589Z,328.85
2022-10-07T14:32:35.231Z,323.20
2022-10-07T14:35:19.320Z,315.25
2022-10-07T14:37:47.354Z,306.55
2022-10-07T14:40:19.319Z,336.27
2022-10-07T14:42:47.821Z,348.33
2022-10-07T14:45:18.545Z,328.92
2022-10-07T14:47:46.666Z,330.10
2022-10-07T14:50:14.994Z,337.13
2022-10-07T14:52:46.910Z,335.42
2022-10-07T14:55:19.335Z,328.17
2022-10-07T14:57:48.138Z,347.38
2022-10-07T15:00:20.232Z,319.00
2022-10-07T15:02:50.203Z,312.88
2022-10-07T15:05:18.793Z,309.80
2022-10-07T15:07:46.899Z,326.67
2022-10-07T15:10:16.969Z,343.02
2022-10-07T15:12:45.128Z,343.48
2022-10-07T15:15:13.911Z,360.15
2022-10-07T15:17:44.246Z,361.23
2022-10-07T15:20:14.244Z,354.65
2022-10-07T15:22:42.674Z,384.77
2022-10-07T15:25:12.340Z,356.52
2022-10-07T15:27:39.990Z,360.92
2022-10-07T15:30:08.923Z,367.00
2022-10-07T15:32:36.801Z,371.08
2022-10-07T15:35:07.447Z,349.33
2022-10-07T15:37:35.084Z,374.58
2022-10-07T15:40:02.732Z,384.15
2022-10-07T15:42:30.397Z,400.27
2022-10-07T15:44:58.249Z,402.85
2022-10-07T15:47:28.089Z,407.80
2022-10-07T15:49:55.690Z,383.88
2022-10-07T15:52:25.052Z,381.55
2022-10-07T15:54:52.720Z,386.02
2022-10-07T15:57:22.334Z,394.52
2022-10-07T15:59:49.919Z,399.23
2022-10-07T16:02:21.233Z,407.15
2022-10-07T16:04:48.980Z,419.23
2022-10-07T16:07:17.225Z,401.73
2022-10-07T16:09:46.165Z,398.63
2022-10-07T16:12:14.114Z,424.55
2022-10-07T16:14:41.746Z,422.92
2022-10-07T16:17:09.384Z,454.42
2022-10-07T16:19:37.139Z,460.52
2022-10-07T16:22:04.755Z,459.75
2022-10-07T16:24:35.306Z,465.38
2022-10-07T16:27:04.710Z,468.55
2022-10-07T16:29:50.079Z,474.15
2022-10-07T16:32:17.716Z,471.65
2022-10-07T16:34:46.793Z,479.40
2022-10-07T16:37:15.224Z,467.98
2022-10-07T16:39:42.979Z,475.60
2022-10-07T16:42:12.139Z,506.58
2022-10-07T16:44:39.784Z,510.73
2022-10-07T16:47:07.455Z,493.23
2022-10-07T16:49:36.332Z,514.08
2022-10-07T16:52:04.370Z,490.73
2022-10-07T16:54:35.299Z,516.50
2022-10-07T16:57:03.023Z,502.48
2022-10-07T16:59:32.104Z,512.13
2022-10-07T17:02:02.510Z,503.20
2022-10-07T17:04:30.370Z,502.70
2022-10-07T17:06:58.180Z,497.23
2022-10-07T17:09:25.795Z,486.77
2022-10-07T17:11:53.469Z,525.13
2022-10-07T17:14:22.846Z,499.70
2022-10-07T17:16:54.161Z,505.80
2022-10-07T17:19:24.388Z,500.58
2022-10-07T17:21:53.176Z,513.40
2022-10-07T17:24:22.779Z,497.48
2022-10-07T17:26:52.354Z,461.30
2022-10-07T17:29:21.950Z,474.63
2022-10-07T17:31:50.623Z,496.20
2022-10-07T17:34:21.269Z,491.27
2022-10-07T17:36:49.505Z,486.85
2022-10-07T17:39:18.954Z,457.92
2022-10-07T17:41:46.802Z,456.35
2022-10-07T17:44:14.677Z,487.00
2022-10-07T17:46:42.382Z,466.08
2022-10-07T17:49:13.070Z,466.85
2022-10-07T17:51:43.796Z,467.77
2022-10-07T17:54:13.446Z,470.45
2022-10-07T17:56:41.245Z,456.13
2022-10-07T17:59:08.933Z,454.23
2022-10-07T18:01:37.598Z,446.70
2022-10-07T18:04:06.706Z,459.30
2022-10-07T18:06:36.347Z,441.27
2022-10-07T18:09:07.766Z,486.60
2022-10-07T18:11:53.211Z,442.20
2022-10-07T18:14:39.272Z,432.67
2022-10-07T18:17:08.712Z,461.40
2022-10-07T18:19:36.766Z,452.45
2022-10-07T18:22:04.507Z,447.20
2022-10-07T18:24:33.502Z,444.65
2022-10-07T18:27:02.035Z,432.35
2022-10-07T18:29:31.473Z,440.35
2022-10-07T18:31:59.557Z,450.77
2022-10-07T18:34:27.174Z,448.90
2022-10-07T18:36:57.013Z,436.02
2022-10-07T18:39:27.189Z,433.15
2022-10-07T18:41:56.585Z,448.05
2022-10-07T18:44:24.314Z,437.60
2022-10-07T18:46:52.249Z,420.55
2022-10-07T18:49:19.854Z,440.63
2022-10-07T18:51:50.303Z,436.70
2022-10-07T18:54:17.969Z,413.73
2022-10-07T18:56:47.705Z,433.77
2022-10-07T18:59:17.660Z,420.52
2022-10-07T19:01:50.127Z,420.90
2022-10-07T19:04:19.809Z,413.20
2022-10-07T19:06:47.579Z,391.85
2022-10-07T19:09:17.034Z,424.38
2022-10-07T19:11:45.009Z,452.42
2022-10-07T19:14:12.080Z,413.77
2022-10-07T19:16:43.586Z,419.20
2022-10-07T19:19:13.759Z,421.92
2022-10-07T19:21:41.849Z,404.15
2022-10-07T19:24:09.467Z,419.17
2022-10-07T19:26:42.229Z,410.65
2022-10-07T19:29:10.739Z,407.10
2022-10-07T19:31:40.475Z,400.80
2022-10-07T19:34:11.450Z,406.92
2022-10-07T19:36:42.328Z,384.55
2022-10-07T19:39:11.291Z,418.08
2022-10-07T19:41:38.997Z,418.85
2022-10-07T19:44:06.792Z,418.88
2022-10-07T19:46:34.500Z,371.80
2022-10-07T19:49:03.509Z,407.08
2022-10-07T19:51:34.074Z,382.00
2022-10-07T19:54:03.374Z,410.10
2022-10-07T19:56:32.857Z,415.00
2022-10-07T19:59:05.342Z,399.50
2022-10-07T20:01:35.148Z,396.27
2022-10-07T20:04:23.130Z,411.02
2022-10-07T20:07:12.472Z,386.77
2022-10-07T20:10:00.461Z,393.52
2022-10-07T20:12:48.563Z,377.02
2022-10-07T20:15:37.104Z,399.83
2022-10-07T20:18:25.093Z,400.40
2022-10-07T20:21:16.005Z,422.27
2022-10-07T20:24:07.370Z,406.10
2022-10-07T20:26:55.322Z,403.60
2022-10-07T20:32:37.285Z,389.00
2022-10-07T20:35:25.220Z,406.25
2022-10-07T20:38:13.114Z,389.80
2022-10-07T20:41:18.946Z,393.45
2022-10-07T20:44:08.023Z,422.98
2022-10-07T20:46:57.173Z,406.10
2022-10-07T20:49:48.437Z,419.25
2022-10-07T20:52:37.176Z,412.95
2022-10-07T20:55:25.099Z,415.13
2022-10-07T20:58:14.866Z,410.80
2022-10-07T21:01:08.506Z,419.73
2022-10-07T21:03:56.880Z,415.63
2022-10-07T21:06:46.147Z,406.65
2022-10-07T21:09:36.477Z,416.95
2022-10-07T21:12:24.576Z,396.08
2022-10-07T21:15:12.553Z,395.27
2022-10-07T21:18:00.469Z,388.88
2022-10-07T21:20:56.324Z,402.95
2022-10-07T21:23:46.447Z,374.38
2022-10-07T21:26:34.837Z,399.73
2022-10-07T21:29:22.975Z,408.08
2022-10-07T21:32:11.645Z,418.40
2022-10-07T21:34:59.585Z,430.00
2022-10-07T21:37:47.493Z,379.90
2022-10-07T21:40:36.744Z,407.75
2022-10-07T21:43:24.645Z,389.08
2022-10-07T21:46:12.618Z,415.35
2022-10-07T21:49:00.719Z,415.73
2022-10-07T21:51:48.626Z,402.90
2022-10-07T21:54:37.407Z,392.27
2022-10-07T21:57:26.691Z,382.50
2022-10-07T22:00:16.390Z,376.08
2022-10-07T22:03:04.739Z,399.30
2022-10-07T22:05:52.711Z,394.73
2022-10-07T22:08:40.878Z,389.77
2022-10-07T22:11:28.772Z,390.23
2022-10-07T22:14:18.690Z,379.55
2022-10-07T22:17:06.656Z,384.38
2022-10-07T22:19:54.768Z,360.25
2022-10-07T22:22:42.888Z,396.65
2022-10-07T22:25:30.913Z,422.60
2022-10-07T22:28:18.885Z,396.65
2022-10-07T22:31:10.678Z,406.70
2022-10-07T22:34:00.297Z,387.63
2022-10-07T22:36:48.190Z,402.90
2022-10-07T22:39:36.095Z,390.77
2022-10-07T22:42:24.165Z,414.20
2022-10-07T22:45:12.656Z,393.70
2022-10-07T22:48:02.115Z,396.02
2022-10-07T22:50:50.812Z,400.02
2022-10-07T22:53:40.817Z,427.40
2022-10-07T22:56:29.384Z,409.90
2022-10-07T22:59:17.464Z,416.67
2022-10-07T23:02:05.442Z,434.73
2022-10-07T23:04:54.726Z,431.27
2022-10-07T23:07:42.609Z,409.35
2022-10-07T23:10:30.569Z,425.67
2022-10-07T23:13:18.470Z,427.48
2022-10-07T23:16:11.859Z,453.85
2022-10-07T23:19:00.059Z,426.58
2022-10-07T23:21:49.532Z,402.27
2022-10-07T23:24:37.408Z,447.85
2022-10-07T23:27:25.353Z,390.45
2022-10-07T23:30:13.736Z,442.35
2022-10-07T23:33:01.668Z,410.38
2022-10-07T23:35:49.615Z,412.98
2022-10-07T23:38:40.699Z,407.05
2022-10-07T23:41:32.331Z,442.10
2022-10-07T23:44:20.220Z,480.50
2022-10-07T23:47:08.130Z,418.90
2022-10-07T23:49:56.099Z,414.77
2022-10-07T23:52:44.203Z,419.95
2022-10-07T23:55:33.652Z,417.80
2022-10-07T23:58:23.573Z,390.02
